sensor_id;sensor_type;location;lat;lon;timestamp;temperature;humidity
30234;DHT22;17046;52.074;4.748;2022-10-16T00:01:11;13.80;54.80
30234;DHT22;17046;52.074;4.748;2022-10-16T00:03:38;13.80;46.80
30234;DHT22;17046;52.074;4.748;2022-10-16T00:06:04;13.90;44.40
30234;DHT22;17046;52.074;4.748;2022-10-16T00:08:30;13.90;33.20
30234;DHT22;17046;52.074;4.748;2022-10-16T00:11:11;13.90;33.90
30234;DHT22;17046;52.074;4.748;2022-10-16T00:13:38;13.90;29.70
30234;DHT22;17046;52.074;4.748;2022-10-16T00:16:05;13.90;27.60
30234;DHT22;17046;52.074;4.748;2022-10-16T00:18:31;13.90;25.70
30234;DHT22;17046;52.074;4.748;2022-10-16T00:21:02;13.90;28.60
30234;DHT22;17046;52.074;4.748;2022-10-16T00:23:28;13.80;28.80
30234;DHT22;17046;52.074;4.748;2022-10-16T00:25:57;13.80;32.00
30234;DHT22;17046;52.074;4.748;2022-10-16T00:28:23;13.90;25.60
30234;DHT22;17046;52.074;4.748;2022-10-16T00:30:49;13.90;21.20
30234;DHT22;17046;52.074;4.748;2022-10-16T00:33:14;13.90;20.70
30234;DHT22;17046;52.074;4.748;2022-10-16T00:35:40;13.90;15.70
30234;DHT22;17046;52.074;4.748;2022-10-16T00:38:05;13.90;16.60
30234;DHT22;17046;52.074;4.748;2022-10-16T00:40:31;14.00;11.10
30234;DHT22;17046;52.074;4.748;2022-10-16T00:42:57;14.00;9.70
30234;DHT22;17046;52.074;4.748;2022-10-16T00:45:22;14.10;7.20
30234;DHT22;17046;52.074;4.748;2022-10-16T00:47:49;14.10;4.00
30234;DHT22;17046;52.074;4.748;2022-10-16T00:50:24;14.10;9.30
30234;DHT22;17046;52.074;4.748;2022-10-16T00:52:51;14.10;13.00
30234;DHT22;17046;52.074;4.748;2022-10-16T00:55:18;14.10;13.20
30234;DHT22;17046;52.074;4.748;2022-10-16T00:57:44;14.20;17.10
30234;DHT22;17046;52.074;4.748;2022-10-16T01:00:13;14.20;24.60
30234;DHT22;17046;52.074;4.748;2022-10-16T01:02:39;14.20;27.70
30234;DHT22;17046;52.074;4.748;2022-10-16T01:05:05;14.10;40.60
30234;DHT22;17046;52.074;4.748;2022-10-16T01:13:07;14.00;64.30
30234;DHT22;17046;52.074;4.748;2022-10-16T01:15:51;14.00;72.20
30234;DHT22;17046;52.074;4.748;2022-10-16T01:21:06;14.00;87.30
30234;DHT22;17046;52.074;4.748;2022-10-16T01:24:02;13.90;93.40
30234;DHT22;17046;52.074;4.748;2022-10-16T01:26:43;13.90;99.80
30234;DHT22;17046;52.074;4.748;2022-10-16T01:29:26;13.80;99.90
30234;DHT22;17046;52.074;4.748;2022-10-16T01:31:57;13.70;99.90
30234;DHT22;17046;52.074;4.748;2022-10-16T01:34:33;13.60;99.90
30234;DHT22;17046;52.074;4.748;2022-10-16T01:37:05;13.60;99.90
30234;DHT22;17046;52.074;4.748;2022-10-16T01:39:35;13.60;99.90
30234;DHT22;17046;52.074;4.748;2022-10-16T01:42:17;13.50;99.90
30234;DHT22;17046;52.074;4.748;2022-10-16T01:44:46;13.50;99.90
30234;DHT22;17046;52.074;4.748;2022-10-16T01:47:13;13.50;99.90
30234;DHT22;17046;52.074;4.748;2022-10-16T01:49:40;13.40;99.90
30234;DHT22;17046;52.074;4.748;2022-10-16T01:52:12;13.40;99.90
30234;DHT22;17046;52.074;4.748;2022-10-16T01:54:40;13.30;99.90
30234;DHT22;17046;52.074;4.748;2022-10-16T01:57:07;13.20;99.90
30234;DHT22;17046;52.074;4.748;2022-10-16T01:59:37;13.10;99.90
30234;DHT22;17046;52.074;4.748;2022-10-16T02:02:06;13.10;99.90
30234;DHT22;17046;52.074;4.748;2022-10-16T02:04:40;13.10;99.90
30234;DHT22;17046;52.074;4.748;2022-10-16T02:07:08;13.00;99.90
30234;DHT22;17046;52.074;4.748;2022-10-16T02:09:34;13.00;99.90
30234;DHT22;17046;52.074;4.748;2022-10-16T02:12:06;13.00;99.90
30234;DHT22;17046;52.074;4.748;2022-10-16T02:14:34;13.00;99.90
30234;DHT22;17046;52.074;4.748;2022-10-16T02:16:59;13.00;99.90
30234;DHT22;17046;52.074;4.748;2022-10-16T02:19:25;13.10;99.90
30234;DHT22;17046;52.074;4.748;2022-10-16T02:22:01;13.10;99.90
30234;DHT22;17046;52.074;4.748;2022-10-16T02:29:55;13.20;99.90
30234;DHT22;17046;52.074;4.748;2022-10-16T02:32:25;13.20;99.90
30234;DHT22;17046;52.074;4.748;2022-10-16T02:34:54;13.20;99.90
30234;DHT22;17046;52.074;4.748;2022-10-16T02:37:20;13.20;99.90
30234;DHT22;17046;52.074;4.748;2022-10-16T02:39:46;13.20;99.90
30234;DHT22;17046;52.074;4.748;2022-10-16T02:42:15;13.10;99.90
30234;DHT22;17046;52.074;4.748;2022-10-16T02:44:40;13.20;99.90
30234;DHT22;17046;52.074;4.748;2022-10-16T02:47:06;13.20;99.90
30234;DHT22;17046;52.074;4.748;2022-10-16T02:49:32;13.10;99.90
30234;DHT22;17046;52.074;4.748;2022-10-16T02:51:57;13.10;99.90
30234;DHT22;17046;52.074;4.748;2022-10-16T02:54:23;13.10;99.90
30234;DHT22;17046;52.074;4.748;2022-10-16T02:56:49;13.10;99.90
30234;DHT22;17046;52.074;4.748;2022-10-16T02:59:15;13.00;99.90
30234;DHT22;17046;52.074;4.748;2022-10-16T03:01:41;13.00;99.90
30234;DHT22;17046;52.074;4.748;2022-10-16T03:04:06;13.00;99.90
30234;DHT22;17046;52.074;4.748;2022-10-16T03:06:32;12.90;99.90
30234;DHT22;17046;52.074;4.748;2022-10-16T03:08:57;13.00;99.90
30234;DHT22;17046;52.074;4.748;2022-10-16T03:11:23;13.00;99.90
30234;DHT22;17046;52.074;4.748;2022-10-16T03:13:48;12.90;99.90
30234;DHT22;17046;52.074;4.748;2022-10-16T03:16:14;12.90;99.90
30234;DHT22;17046;52.074;4.748;2022-10-16T03:18:39;12.90;99.90
30234;DHT22;17046;52.074;4.748;2022-10-16T03:21:05;12.90;99.90
30234;DHT22;17046;52.074;4.748;2022-10-16T03:23:30;12.90;99.90
30234;DHT22;17046;52.074;4.748;2022-10-16T03:25:56;12.90;99.90
30234;DHT22;17046;52.074;4.748;2022-10-16T03:28:21;12.90;99.90
30234;DHT22;17046;52.074;4.748;2022-10-16T03:30:47;12.90;99.90
30234;DHT22;17046;52.074;4.748;2022-10-16T03:33:12;12.90;99.90
30234;DHT22;17046;52.074;4.748;2022-10-16T03:35:38;12.90;99.90
30234;DHT22;17046;52.074;4.748;2022-10-16T03:38:03;12.90;99.90
30234;DHT22;17046;52.074;4.748;2022-10-16T03:40:29;12.90;99.90
30234;DHT22;17046;52.074;4.748;2022-10-16T03:42:57;13.00;99.90
30234;DHT22;17046;52.074;4.748;2022-10-16T03:45:23;13.10;99.90
30234;DHT22;17046;52.074;4.748;2022-10-16T03:47:48;13.10;99.90
30234;DHT22;17046;52.074;4.748;2022-10-16T03:50:14;13.20;99.90
30234;DHT22;17046;52.074;4.748;2022-10-16T03:52:40;13.20;99.90
30234;DHT22;17046;52.074;4.748;2022-10-16T03:55:06;13.20;99.90
30234;DHT22;17046;52.074;4.748;2022-10-16T03:57:32;13.20;99.90
30234;DHT22;17046;52.074;4.748;2022-10-16T03:59:57;13.20;99.90
30234;DHT22;17046;52.074;4.748;2022-10-16T04:02:23;13.20;99.90
30234;DHT22;17046;52.074;4.748;2022-10-16T04:04:48;13.20;99.90
30234;DHT22;17046;52.074;4.748;2022-10-16T04:07:14;13.20;99.90
30234;DHT22;17046;52.074;4.748;2022-10-16T04:09:39;13.20;99.90
30234;DHT22;17046;52.074;4.748;2022-10-16T04:12:05;13.20;99.90
30234;DHT22;17046;52.074;4.748;2022-10-16T04:14:30;13.10;99.90
30234;DHT22;17046;52.074;4.748;2022-10-16T04:16:56;13.10;99.90
30234;DHT22;17046;52.074;4.748;2022-10-16T04:19:21;13.00;99.90
30234;DHT22;17046;52.074;4.748;2022-10-16T04:21:47;13.00;99.90
30234;DHT22;17046;52.074;4.748;2022-10-16T04:24:12;12.90;99.90
30234;DHT22;17046;52.074;4.748;2022-10-16T04:26:38;12.90;99.90
30234;DHT22;17046;52.074;4.748;2022-10-16T04:29:04;12.80;99.90
30234;DHT22;17046;52.074;4.748;2022-10-16T04:31:29;12.90;99.90
30234;DHT22;17046;52.074;4.748;2022-10-16T04:33:55;12.90;99.90
30234;DHT22;17046;52.074;4.748;2022-10-16T04:36:21;12.90;99.90
30234;DHT22;17046;52.074;4.748;2022-10-16T04:38:46;12.90;99.90
30234;DHT22;17046;52.074;4.748;2022-10-16T04:41:12;13.00;99.90
30234;DHT22;17046;52.074;4.748;2022-10-16T04:43:37;13.00;99.90
30234;DHT22;17046;52.074;4.748;2022-10-16T04:46:03;13.00;99.90
30234;DHT22;17046;52.074;4.748;2022-10-16T04:48:30;13.00;99.90
30234;DHT22;17046;52.074;4.748;2022-10-16T04:50:55;13.00;99.90
30234;DHT22;17046;52.074;4.748;2022-10-16T04:53:21;12.90;99.90
30234;DHT22;17046;52.074;4.748;2022-10-16T04:55:47;13.00;99.90
30234;DHT22;17046;52.074;4.748;2022-10-16T04:58:12;13.00;99.90
30234;DHT22;17046;52.074;4.748;2022-10-16T05:00:38;13.00;99.90
30234;DHT22;17046;52.074;4.748;2022-10-16T05:03:04;13.00;99.90
30234;DHT22;17046;52.074;4.748;2022-10-16T05:05:33;13.00;99.90
30234;DHT22;17046;52.074;4.748;2022-10-16T05:07:58;13.00;99.90
30234;DHT22;17046;52.074;4.748;2022-10-16T05:10:24;13.10;99.90
30234;DHT22;17046;52.074;4.748;2022-10-16T05:12:49;13.10;99.90
30234;DHT22;17046;52.074;4.748;2022-10-16T05:15:16;13.10;99.90
30234;DHT22;17046;52.074;4.748;2022-10-16T05:17:42;13.10;99.90
30234;DHT22;17046;52.074;4.748;2022-10-16T05:20:07;13.20;99.90
30234;DHT22;17046;52.074;4.748;2022-10-16T05:22:33;13.20;99.90
30234;DHT22;17046;52.074;4.748;2022-10-16T05:24:59;13.20;99.90
30234;DHT22;17046;52.074;4.748;2022-10-16T05:27:24;13.30;99.90
30234;DHT22;17046;52.074;4.748;2022-10-16T05:29:50;13.20;99.90
30234;DHT22;17046;52.074;4.748;2022-10-16T05:32:16;13.20;99.90
30234;DHT22;17046;52.074;4.748;2022-10-16T05:34:42;13.20;99.90
30234;DHT22;17046;52.074;4.748;2022-10-16T05:37:08;13.20;99.90
30234;DHT22;17046;52.074;4.748;2022-10-16T05:39:33;13.20;99.90
30234;DHT22;17046;52.074;4.748;2022-10-16T05:41:59;13.20;99.90
30234;DHT22;17046;52.074;4.748;2022-10-16T05:44:24;13.20;99.90
30234;DHT22;17046;52.074;4.748;2022-10-16T05:46:50;13.10;99.90
30234;DHT22;17046;52.074;4.748;2022-10-16T05:49:16;13.10;99.90
30234;DHT22;17046;52.074;4.748;2022-10-16T05:51:41;13.10;99.90
30234;DHT22;17046;52.074;4.748;2022-10-16T05:54:07;13.00;99.90
30234;DHT22;17046;52.074;4.748;2022-10-16T05:56:33;13.00;99.90
30234;DHT22;17046;52.074;4.748;2022-10-16T05:58:58;13.00;99.90
30234;DHT22;17046;52.074;4.748;2022-10-16T06:01:24;12.90;99.90
30234;DHT22;17046;52.074;4.748;2022-10-16T06:03:53;12.90;99.90
30234;DHT22;17046;52.074;4.748;2022-10-16T06:06:23;12.90;99.90
30234;DHT22;17046;52.074;4.748;2022-10-16T06:08:51;12.80;99.90
30234;DHT22;17046;52.074;4.748;2022-10-16T06:11:20;12.80;99.90
30234;DHT22;17046;52.074;4.748;2022-10-16T06:13:52;12.80;99.90
30234;DHT22;17046;52.074;4.748;2022-10-16T06:16:19;12.80;99.90
30234;DHT22;17046;52.074;4.748;2022-10-16T06:18:45;12.80;99.90
30234;DHT22;17046;52.074;4.748;2022-10-16T06:21:17;12.80;99.90
30234;DHT22;17046;52.074;4.748;2022-10-16T06:23:43;12.80;99.90
30234;DHT22;17046;52.074;4.748;2022-10-16T06:26:11;12.80;99.90
30234;DHT22;17046;52.074;4.748;2022-10-16T06:28:37;12.80;99.90
30234;DHT22;17046;52.074;4.748;2022-10-16T06:31:04;12.80;99.90
30234;DHT22;17046;52.074;4.748;2022-10-16T06:33:30;12.80;99.90
30234;DHT22;17046;52.074;4.748;2022-10-16T06:36:07;12.80;99.90
30234;DHT22;17046;52.074;4.748;2022-10-16T06:38:33;12.90;99.90
30234;DHT22;17046;52.074;4.748;2022-10-16T06:40:59;12.90;99.90
30234;DHT22;17046;52.074;4.748;2022-10-16T06:43:26;12.90;99.90
30234;DHT22;17046;52.074;4.748;2022-10-16T06:45:56;13.00;99.90
30234;DHT22;17046;52.074;4.748;2022-10-16T06:48:22;13.00;99.90
30234;DHT22;17046;52.074;4.748;2022-10-16T06:51:10;13.10;99.90
30234;DHT22;17046;52.074;4.748;2022-10-16T06:53:37;13.10;99.90
30234;DHT22;17046;52.074;4.748;2022-10-16T06:56:07;13.20;99.90
30234;DHT22;17046;52.074;4.748;2022-10-16T06:58:33;13.30;99.90
30234;DHT22;17046;52.074;4.748;2022-10-16T07:00:59;13.30;99.90
30234;DHT22;17046;52.074;4.748;2022-10-16T07:03:25;13.40;99.90
30234;DHT22;17046;52.074;4.748;2022-10-16T07:05:50;13.40;99.90
30234;DHT22;17046;52.074;4.748;2022-10-16T07:08:16;13.50;99.90
30234;DHT22;17046;52.074;4.748;2022-10-16T07:10:41;13.50;99.90
30234;DHT22;17046;52.074;4.748;2022-10-16T07:13:07;13.50;99.90
30234;DHT22;17046;52.074;4.748;2022-10-16T07:15:33;13.50;99.90
30234;DHT22;17046;52.074;4.748;2022-10-16T07:17:59;13.50;99.90
30234;DHT22;17046;52.074;4.748;2022-10-16T07:20:25;13.50;99.90
30234;DHT22;17046;52.074;4.748;2022-10-16T07:22:51;13.50;99.90
30234;DHT22;17046;52.074;4.748;2022-10-16T07:25:17;13.50;99.90
30234;DHT22;17046;52.074;4.748;2022-10-16T07:27:43;13.40;99.90
30234;DHT22;17046;52.074;4.748;2022-10-16T07:30:08;13.30;99.90
30234;DHT22;17046;52.074;4.748;2022-10-16T07:32:34;13.30;99.90
30234;DHT22;17046;52.074;4.748;2022-10-16T07:35:00;13.30;99.90
30234;DHT22;17046;52.074;4.748;2022-10-16T07:37:25;13.40;99.90
30234;DHT22;17046;52.074;4.748;2022-10-16T07:39:51;13.40;99.90
30234;DHT22;17046;52.074;4.748;2022-10-16T07:42:17;13.40;99.90
30234;DHT22;17046;52.074;4.748;2022-10-16T07:44:42;13.40;99.90
30234;DHT22;17046;52.074;4.748;2022-10-16T07:47:09;13.50;99.90
30234;DHT22;17046;52.074;4.748;2022-10-16T07:49:34;13.50;99.90
30234;DHT22;17046;52.074;4.748;2022-10-16T07:52:00;13.50;99.90
30234;DHT22;17046;52.074;4.748;2022-10-16T07:54:25;13.60;99.90
30234;DHT22;17046;52.074;4.748;2022-10-16T07:56:51;13.60;99.90
30234;DHT22;17046;52.074;4.748;2022-10-16T07:59:16;13.60;99.90
30234;DHT22;17046;52.074;4.748;2022-10-16T08:01:42;13.70;99.90
30234;DHT22;17046;52.074;4.748;2022-10-16T08:04:08;13.70;99.90
30234;DHT22;17046;52.074;4.748;2022-10-16T08:06:39;13.70;99.90
30234;DHT22;17046;52.074;4.748;2022-10-16T08:09:06;13.80;99.90
30234;DHT22;17046;52.074;4.748;2022-10-16T08:11:32;13.90;99.90
30234;DHT22;17046;52.074;4.748;2022-10-16T08:13:57;13.90;99.90
30234;DHT22;17046;52.074;4.748;2022-10-16T08:16:23;14.00;99.90
30234;DHT22;17046;52.074;4.748;2022-10-16T08:18:49;14.10;99.90
30234;DHT22;17046;52.074;4.748;2022-10-16T08:21:18;14.20;99.90
30234;DHT22;17046;52.074;4.748;2022-10-16T08:23:44;14.20;99.90
30234;DHT22;17046;52.074;4.748;2022-10-16T08:26:10;14.30;99.90
30234;DHT22;17046;52.074;4.748;2022-10-16T08:28:37;14.30;99.90
30234;DHT22;17046;52.074;4.748;2022-10-16T08:31:21;14.40;99.90
30234;DHT22;17046;52.074;4.748;2022-10-16T08:33:47;14.50;99.90
30234;DHT22;17046;52.074;4.748;2022-10-16T08:36:14;14.50;99.90
30234;DHT22;17046;52.074;4.748;2022-10-16T08:38:40;14.50;99.90
30234;DHT22;17046;52.074;4.748;2022-10-16T08:41:21;14.70;99.90
30234;DHT22;17046;52.074;4.748;2022-10-16T08:47:11;14.80;99.90
30234;DHT22;17046;52.074;4.748;2022-10-16T08:49:41;14.80;99.90
30234;DHT22;17046;52.074;4.748;2022-10-16T08:52:12;14.90;99.90
30234;DHT22;17046;52.074;4.748;2022-10-16T08:54:43;14.90;99.90
30234;DHT22;17046;52.074;4.748;2022-10-16T08:57:19;15.00;99.90
30234;DHT22;17046;52.074;4.748;2022-10-16T08:59:45;15.00;99.90
30234;DHT22;17046;52.074;4.748;2022-10-16T09:02:46;15.00;99.90
30234;DHT22;17046;52.074;4.748;2022-10-16T09:05:41;15.10;99.90
30234;DHT22;17046;52.074;4.748;2022-10-16T09:11:13;15.20;99.90
30234;DHT22;17046;52.074;4.748;2022-10-16T09:14:13;15.30;99.90
30234;DHT22;17046;52.074;4.748;2022-10-16T09:16:48;15.30;99.90
30234;DHT22;17046;52.074;4.748;2022-10-16T09:19:23;15.40;98.00
30234;DHT22;17046;52.074;4.748;2022-10-16T09:21:51;15.50;94.80
30234;DHT22;17046;52.074;4.748;2022-10-16T09:24:20;15.50;97.10
30234;DHT22;17046;52.074;4.748;2022-10-16T09:26:47;15.60;94.20
30234;DHT22;17046;52.074;4.748;2022-10-16T09:29:14;15.70;74.80
30234;DHT22;17046;52.074;4.748;2022-10-16T09:31:40;15.80;58.60
30234;DHT22;17046;52.074;4.748;2022-10-16T09:34:08;15.80;50.40
30234;DHT22;17046;52.074;4.748;2022-10-16T09:36:42;15.90;53.80
30234;DHT22;17046;52.074;4.748;2022-10-16T09:39:09;16.10;58.50
30234;DHT22;17046;52.074;4.748;2022-10-16T09:41:39;16.30;34.80
30234;DHT22;17046;52.074;4.748;2022-10-16T09:44:25;16.40;9.90
30234;DHT22;17046;52.074;4.748;2022-10-16T09:47:05;16.40;4.00
30234;DHT22;17046;52.074;4.748;2022-10-16T09:49:31;16.40;1.00
30234;DHT22;17046;52.074;4.748;2022-10-16T09:52:09;16.50;1.00
30234;DHT22;17046;52.074;4.748;2022-10-16T09:54:36;16.50;13.40
30234;DHT22;17046;52.074;4.748;2022-10-16T09:57:06;16.50;1.00
30234;DHT22;17046;52.074;4.748;2022-10-16T09:59:32;16.50;5.60
30234;DHT22;17046;52.074;4.748;2022-10-16T10:02:02;16.70;1.00
30234;DHT22;17046;52.074;4.748;2022-10-16T10:04:40;16.70;1.00
30234;DHT22;17046;52.074;4.748;2022-10-16T10:07:07;16.70;1.00
30234;DHT22;17046;52.074;4.748;2022-10-16T10:09:44;16.80;1.00
30234;DHT22;17046;52.074;4.748;2022-10-16T10:14:48;16.60;1.00
30234;DHT22;17046;52.074;4.748;2022-10-16T10:17:28;16.70;1.00
30234;DHT22;17046;52.074;4.748;2022-10-16T10:19:59;16.80;1.00
30234;DHT22;17046;52.074;4.748;2022-10-16T10:22:44;17.10;1.00
30234;DHT22;17046;52.074;4.748;2022-10-16T10:30:46;16.90;99.90
30234;DHT22;17046;52.074;4.748;2022-10-16T10:38:38;17.00;99.90
30234;DHT22;17046;52.074;4.748;2022-10-16T10:41:27;16.90;99.90
30234;DHT22;17046;52.074;4.748;2022-10-16T10:55:12;16.20;99.90
30234;DHT22;17046;52.074;4.748;2022-10-16T11:00:57;16.20;99.90
30234;DHT22;17046;52.074;4.748;2022-10-16T11:06:35;16.40;99.90
30234;DHT22;17046;52.074;4.748;2022-10-16T11:09:20;16.50;99.90
30234;DHT22;17046;52.074;4.748;2022-10-16T11:14:26;16.70;99.90
30234;DHT22;17046;52.074;4.748;2022-10-16T11:17:00;16.80;47.40
30234;DHT22;17046;52.074;4.748;2022-10-16T11:22:29;16.80;99.90
30234;DHT22;17046;52.074;4.748;2022-10-16T11:27:37;16.90;91.20
30234;DHT22;17046;52.074;4.748;2022-10-16T11:30:30;17.00;1.00
30234;DHT22;17046;52.074;4.748;2022-10-16T11:35:49;17.10;1.00
30234;DHT22;17046;52.074;4.748;2022-10-16T11:38:34;17.20;1.00
30234;DHT22;17046;52.074;4.748;2022-10-16T11:41:13;17.20;1.00
30234;DHT22;17046;52.074;4.748;2022-10-16T11:43:49;17.40;1.00
30234;DHT22;17046;52.074;4.748;2022-10-16T11:46:20;17.40;1.00
30234;DHT22;17046;52.074;4.748;2022-10-16T11:49:03;17.50;1.00
30234;DHT22;17046;52.074;4.748;2022-10-16T11:51:45;17.50;1.00
30234;DHT22;17046;52.074;4.748;2022-10-16T11:54:34;17.50;1.00
30234;DHT22;17046;52.074;4.748;2022-10-16T11:57:07;17.50;1.00
30234;DHT22;17046;52.074;4.748;2022-10-16T11:59:41;17.50;1.00
30234;DHT22;17046;52.074;4.748;2022-10-16T12:05:15;17.30;1.00
30234;DHT22;17046;52.074;4.748;2022-10-16T12:08:06;17.20;1.00
30234;DHT22;17046;52.074;4.748;2022-10-16T12:10:33;17.30;1.00
30234;DHT22;17046;52.074;4.748;2022-10-16T12:13:03;17.30;1.00
30234;DHT22;17046;52.074;4.748;2022-10-16T12:15:32;17.40;1.00
30234;DHT22;17046;52.074;4.748;2022-10-16T12:17:58;17.40;1.00
30234;DHT22;17046;52.074;4.748;2022-10-16T12:20:31;17.40;1.00
30234;DHT22;17046;52.074;4.748;2022-10-16T12:25:43;17.40;1.00
30234;DHT22;17046;52.074;4.748;2022-10-16T12:28:21;17.40;1.00
30234;DHT22;17046;52.074;4.748;2022-10-16T12:30:58;17.40;99.90
30234;DHT22;17046;52.074;4.748;2022-10-16T12:33:35;17.40;1.00
30234;DHT22;17046;52.074;4.748;2022-10-16T12:36:04;17.30;99.90
30234;DHT22;17046;52.074;4.748;2022-10-16T12:38:45;17.20;1.00
30234;DHT22;17046;52.074;4.748;2022-10-16T12:41:11;17.20;1.00
30234;DHT22;17046;52.074;4.748;2022-10-16T12:43:40;17.10;1.00
30234;DHT22;17046;52.074;4.748;2022-10-16T12:48:39;17.10;1.00
30234;DHT22;17046;52.074;4.748;2022-10-16T12:53:38;17.20;1.00
30234;DHT22;17046;52.074;4.748;2022-10-16T12:56:08;17.30;99.90
30234;DHT22;17046;52.074;4.748;2022-10-16T13:04:05;17.40;1.00
30234;DHT22;17046;52.074;4.748;2022-10-16T13:06:48;17.50;1.00
30234;DHT22;17046;52.074;4.748;2022-10-16T13:09:23;17.60;1.00
30234;DHT22;17046;52.074;4.748;2022-10-16T13:12:11;17.70;99.90
30234;DHT22;17046;52.074;4.748;2022-10-16T13:23:13;17.80;99.90
30234;DHT22;17046;52.074;4.748;2022-10-16T13:28:28;17.90;1.00
30234;DHT22;17046;52.074;4.748;2022-10-16T13:30:57;17.90;99.90
30234;DHT22;17046;52.074;4.748;2022-10-16T13:33:36;18.00;1.00
30234;DHT22;17046;52.074;4.748;2022-10-16T13:36:04;18.00;99.90
30234;DHT22;17046;52.074;4.748;2022-10-16T13:38:32;18.10;99.90
30234;DHT22;17046;52.074;4.748;2022-10-16T13:41:03;18.10;1.00
30234;DHT22;17046;52.074;4.748;2022-10-16T13:43:50;18.40;99.90
30234;DHT22;17046;52.074;4.748;2022-10-16T13:46:20;18.40;99.90
30234;DHT22;17046;52.074;4.748;2022-10-16T13:49:11;18.20;99.90
30234;DHT22;17046;52.074;4.748;2022-10-16T13:51:37;18.10;99.90
30234;DHT22;17046;52.074;4.748;2022-10-16T13:54:03;18.00;99.90
30234;DHT22;17046;52.074;4.748;2022-10-16T13:56:30;18.10;99.90
30234;DHT22;17046;52.074;4.748;2022-10-16T13:59:03;18.00;99.90
30234;DHT22;17046;52.074;4.748;2022-10-16T14:01:49;18.00;99.90
30234;DHT22;17046;52.074;4.748;2022-10-16T14:04:17;18.00;99.90
30234;DHT22;17046;52.074;4.748;2022-10-16T14:06:45;18.00;99.90
30234;DHT22;17046;52.074;4.748;2022-10-16T14:09:23;18.00;99.90
30234;DHT22;17046;52.074;4.748;2022-10-16T14:12:11;18.00;1.00
30234;DHT22;17046;52.074;4.748;2022-10-16T14:14:46;17.90;1.00
30234;DHT22;17046;52.074;4.748;2022-10-16T14:17:25;17.90;1.00
30234;DHT22;17046;52.074;4.748;2022-10-16T14:19:54;17.90;1.00
30234;DHT22;17046;52.074;4.748;2022-10-16T14:22:37;18.00;1.00
30234;DHT22;17046;52.074;4.748;2022-10-16T14:28:02;18.30;1.00
30234;DHT22;17046;52.074;4.748;2022-10-16T14:30:28;18.20;1.00
30234;DHT22;17046;52.074;4.748;2022-10-16T14:32:56;18.20;1.00
30234;DHT22;17046;52.074;4.748;2022-10-16T14:35:32;18.20;1.00
30234;DHT22;17046;52.074;4.748;2022-10-16T14:37:59;18.20;1.00
30234;DHT22;17046;52.074;4.748;2022-10-16T14:40:31;18.10;1.00
30234;DHT22;17046;52.074;4.748;2022-10-16T14:42:57;17.90;1.00
30234;DHT22;17046;52.074;4.748;2022-10-16T14:45:28;17.90;1.00
30234;DHT22;17046;52.074;4.748;2022-10-16T14:47:59;18.00;1.00
30234;DHT22;17046;52.074;4.748;2022-10-16T14:50:26;17.90;1.00
30234;DHT22;17046;52.074;4.748;2022-10-16T14:52:52;17.70;56.50
30234;DHT22;17046;52.074;4.748;2022-10-16T14:55:18;17.60;76.50
30234;DHT22;17046;52.074;4.748;2022-10-16T14:57:44;17.60;16.80
30234;DHT22;17046;52.074;4.748;2022-10-16T15:00:20;17.50;11.20
30234;DHT22;17046;52.074;4.748;2022-10-16T15:02:47;17.50;49.80
30234;DHT22;17046;52.074;4.748;2022-10-16T15:05:17;17.50;74.80
30234;DHT22;17046;52.074;4.748;2022-10-16T15:07:44;17.50;78.90
30234;DHT22;17046;52.074;4.748;2022-10-16T15:10:11;17.40;59.90
30234;DHT22;17046;52.074;4.748;2022-10-16T15:12:37;17.50;42.20
30234;DHT22;17046;52.074;4.748;2022-10-16T15:17:47;17.40;38.60
30234;DHT22;17046;52.074;4.748;2022-10-16T15:20:13;17.30;90.90
30234;DHT22;17046;52.074;4.748;2022-10-16T15:22:39;17.20;99.90
30234;DHT22;17046;52.074;4.748;2022-10-16T15:25:29;17.10;99.90
30234;DHT22;17046;52.074;4.748;2022-10-16T15:27:55;16.90;99.90
30234;DHT22;17046;52.074;4.748;2022-10-16T15:30:21;16.90;99.90
30234;DHT22;17046;52.074;4.748;2022-10-16T15:32:47;16.80;99.90
30234;DHT22;17046;52.074;4.748;2022-10-16T15:35:12;16.70;99.90
30234;DHT22;17046;52.074;4.748;2022-10-16T15:37:38;16.70;99.90
30234;DHT22;17046;52.074;4.748;2022-10-16T15:40:04;16.70;99.90
30234;DHT22;17046;52.074;4.748;2022-10-16T15:42:29;16.60;99.90
30234;DHT22;17046;52.074;4.748;2022-10-16T15:44:55;16.60;99.90
30234;DHT22;17046;52.074;4.748;2022-10-16T15:47:20;16.60;99.90
30234;DHT22;17046;52.074;4.748;2022-10-16T15:49:47;16.50;99.90
30234;DHT22;17046;52.074;4.748;2022-10-16T15:52:12;16.60;99.90
30234;DHT22;17046;52.074;4.748;2022-10-16T15:54:38;16.50;99.90
30234;DHT22;17046;52.074;4.748;2022-10-16T15:57:03;16.50;99.90
30234;DHT22;17046;52.074;4.748;2022-10-16T15:59:29;16.50;99.90
30234;DHT22;17046;52.074;4.748;2022-10-16T16:01:55;16.40;1.00
30234;DHT22;17046;52.074;4.748;2022-10-16T16:04:21;16.40;1.00
30234;DHT22;17046;52.074;4.748;2022-10-16T16:06:46;16.30;1.00
30234;DHT22;17046;52.074;4.748;2022-10-16T16:09:13;16.20;1.00
30234;DHT22;17046;52.074;4.748;2022-10-16T16:11:39;16.20;1.00
30234;DHT22;17046;52.074;4.748;2022-10-16T16:14:06;16.20;1.00
30234;DHT22;17046;52.074;4.748;2022-10-16T16:16:31;16.10;1.00
30234;DHT22;17046;52.074;4.748;2022-10-16T16:19:02;16.00;1.00
30234;DHT22;17046;52.074;4.748;2022-10-16T16:21:28;15.90;1.00
30234;DHT22;17046;52.074;4.748;2022-10-16T16:23:54;15.80;1.00
30234;DHT22;17046;52.074;4.748;2022-10-16T16:26:28;15.70;1.00
30234;DHT22;17046;52.074;4.748;2022-10-16T16:29:01;15.60;1.00
30234;DHT22;17046;52.074;4.748;2022-10-16T16:31:28;15.60;1.00
30234;DHT22;17046;52.074;4.748;2022-10-16T16:33:54;15.50;1.00
30234;DHT22;17046;52.074;4.748;2022-10-16T16:36:20;15.50;1.00
30234;DHT22;17046;52.074;4.748;2022-10-16T16:38:46;15.50;1.00
30234;DHT22;17046;52.074;4.748;2022-10-16T16:41:21;15.40;1.00
30234;DHT22;17046;52.074;4.748;2022-10-16T16:43:47;15.30;1.00
30234;DHT22;17046;52.074;4.748;2022-10-16T16:46:14;15.20;1.00
30234;DHT22;17046;52.074;4.748;2022-10-16T16:48:40;15.10;1.00
30234;DHT22;17046;52.074;4.748;2022-10-16T16:51:07;15.10;8.30
30234;DHT22;17046;52.074;4.748;2022-10-16T16:53:34;15.00;17.70
30234;DHT22;17046;52.074;4.748;2022-10-16T16:56:02;15.00;20.40
30234;DHT22;17046;52.074;4.748;2022-10-16T16:58:28;15.00;27.10
30234;DHT22;17046;52.074;4.748;2022-10-16T17:00:53;14.90;39.90
30234;DHT22;17046;52.074;4.748;2022-10-16T17:03:19;14.90;39.20
30234;DHT22;17046;52.074;4.748;2022-10-16T17:05:55;14.90;31.70
30234;DHT22;17046;52.074;4.748;2022-10-16T17:08:21;14.80;24.00
30234;DHT22;17046;52.074;4.748;2022-10-16T17:10:47;14.80;18.20
30234;DHT22;17046;52.074;4.748;2022-10-16T17:13:17;14.90;12.90
30234;DHT22;17046;52.074;4.748;2022-10-16T17:15:47;14.80;8.90
30234;DHT22;17046;52.074;4.748;2022-10-16T17:18:13;14.80;8.80
30234;DHT22;17046;52.074;4.748;2022-10-16T17:20:39;14.80;6.70
30234;DHT22;17046;52.074;4.748;2022-10-16T17:23:04;14.80;5.40